createdAt,value
2018-08-31T00:03:06.649Z,100098.56
2018-08-31T00:05:57.166Z,100103.30
2018-08-31T00:08:05.701Z,100103.82
2018-08-31T00:09:52.467Z,100107.75
2018-08-31T00:11:41.653Z,100104.84
2018-08-31T00:13:17.242Z,100109.13
2018-08-31T00:14:52.970Z,100108.24
2018-08-31T00:16:28.400Z,100105.74
2018-08-31T00:18:03.868Z,100105.81
2018-08-31T00:19:39.280Z,99975.16
2018-08-31T00:21:14.788Z,100108.32
2018-08-31T00:22:50.176Z,100110.49
2018-08-31T00:24:36.860Z,100102.42
2018-08-31T00:26:24.771Z,100100.70
2018-08-31T00:28:11.786Z,100101.09
2018-08-31T00:29:58.417Z,100099.33
2018-08-31T00:33:47.792Z,100101.68
2018-08-31T00:35:36.601Z,100096.33
2018-08-31T00:41:30.710Z,100092.69
2018-08-31T00:43:16.957Z,100098.80
2018-08-31T00:45:02.113Z,100096.23
2018-08-31T00:46:37.718Z,100102.38
2018-08-31T00:48:13.123Z,100105.02
2018-08-31T00:49:48.668Z,100101.52
2018-08-31T00:51:24.469Z,100106.28
2018-08-31T00:53:00.261Z,100105.13
2018-08-31T00:54:35.943Z,100113.17
2018-08-31T00:56:11.428Z,100107.02
2018-08-31T00:57:47.411Z,100104.69
2018-08-31T00:59:22.853Z,100101.70
2018-08-31T01:00:58.362Z,100105.23
2018-08-31T01:02:33.973Z,100106.09
2018-08-31T01:04:09.506Z,100112.23
2018-08-31T01:05:44.928Z,100114.52
2018-08-31T01:07:20.372Z,100120.27
2018-08-31T01:08:55.822Z,100121.72
2018-08-31T01:10:31.276Z,100072.77
2018-08-31T01:12:06.735Z,100125.38
2018-08-31T01:13:42.238Z,100127.88
2018-08-31T01:15:17.670Z,100127.12
2018-08-31T01:16:53.115Z,100122.67
2018-08-31T01:18:28.573Z,100126.08
2018-08-31T01:20:04.018Z,100123.53
2018-08-31T01:21:39.644Z,100115.16
2018-08-31T01:23:15.097Z,100120.94
2018-08-31T01:24:50.982Z,100124.26
2018-08-31T01:26:27.377Z,100122.67
2018-08-31T01:28:03.154Z,100126.35
2018-08-31T01:29:38.534Z,100124.92
2018-08-31T01:31:14.107Z,100125.49
2018-08-31T01:32:49.590Z,100126.83
2018-08-31T01:34:25.660Z,100123.08
2018-08-31T01:36:02.064Z,100123.08
2018-08-31T01:37:37.526Z,100121.87
2018-08-31T01:39:13.090Z,100122.45
2018-08-31T01:40:48.576Z,100115.98
2018-08-31T01:42:23.993Z,100119.96
2018-08-31T01:43:59.661Z,100117.69
2018-08-31T01:45:35.706Z,100124.15
2018-08-31T01:47:12.084Z,100117.47
2018-08-31T01:48:47.807Z,100125.64
2018-08-31T01:50:23.193Z,100129.22
2018-08-31T01:51:58.622Z,100124.92
2018-08-31T01:53:34.107Z,100128.30
2018-08-31T01:55:09.558Z,100120.89
2018-08-31T01:56:45.847Z,100124.01
2018-08-31T01:58:21.590Z,100118.95
2018-08-31T01:59:57.041Z,100123.52
2018-08-31T02:01:32.527Z,100117.95
2018-08-31T02:03:08.573Z,100119.17
2018-08-31T02:04:44.009Z,100120.37
2018-08-31T02:06:19.472Z,100122.61
2018-08-31T02:07:55.457Z,100122.93
2018-08-31T02:09:31.439Z,100125.44
2018-08-31T02:11:07.682Z,100110.78
2018-08-31T02:12:43.175Z,100129.64
2018-08-31T02:14:18.627Z,100125.42
2018-08-31T02:15:54.031Z,100124.25
2018-08-31T02:17:30.078Z,100125.08
2018-08-31T02:19:05.515Z,100124.01
2018-08-31T02:20:40.956Z,100122.13
2018-08-31T02:22:16.336Z,100121.61
2018-08-31T02:23:51.825Z,100121.89
2018-08-31T02:25:27.215Z,100126.38
2018-08-31T02:27:02.669Z,100127.75
2018-08-31T02:28:39.616Z,100128.45
2018-08-31T02:30:15.044Z,100128.47
2018-08-31T02:31:50.455Z,100132.80
2018-08-31T02:33:25.906Z,100128.88
2018-08-31T02:35:01.366Z,100128.00
2018-08-31T02:36:36.775Z,100126.19
2018-08-31T02:38:12.243Z,100123.13
2018-08-31T02:39:47.697Z,100123.79
2018-08-31T02:41:23.424Z,100123.69
2018-08-31T02:42:58.923Z,100121.23
2018-08-31T02:44:34.331Z,100119.11
2018-08-31T02:46:09.875Z,100119.55
2018-08-31T02:47:45.812Z,100119.22
2018-08-31T02:49:21.258Z,100111.87
2018-08-31T02:50:56.818Z,100116.60
2018-08-31T02:52:32.442Z,100115.18
2018-08-31T02:54:07.907Z,100114.33
2018-08-31T02:55:43.595Z,100119.34
2018-08-31T02:57:20.435Z,100120.19
2018-08-31T02:58:56.695Z,100121.98
2018-08-31T03:00:32.108Z,100125.82
2018-08-31T03:02:08.579Z,100129.06
2018-08-31T03:03:44.297Z,100126.65
2018-08-31T03:05:19.891Z,100125.57
2018-08-31T03:06:55.347Z,100120.36
2018-08-31T03:08:30.841Z,100116.39
2018-08-31T03:10:06.387Z,100116.59
2018-08-31T03:11:42.026Z,100112.09
2018-08-31T03:13:17.648Z,100103.19
2018-08-31T03:14:53.059Z,100105.12
2018-08-31T03:16:28.538Z,100109.51
2018-08-31T03:18:04.022Z,100105.23
2018-08-31T03:19:39.410Z,100109.92
2018-08-31T03:21:15.759Z,100111.86
2018-08-31T03:22:51.291Z,100120.04
2018-08-31T03:24:26.747Z,100110.67
2018-08-31T03:26:02.170Z,100110.31
2018-08-31T03:27:38.233Z,100110.69
2018-08-31T03:29:13.700Z,100114.75
2018-08-31T03:30:49.506Z,100117.64
2018-08-31T03:32:26.065Z,100113.66
2018-08-31T03:34:01.445Z,100113.71
2018-08-31T03:35:37.159Z,100119.10
2018-08-31T03:37:12.582Z,100119.20
2018-08-31T03:38:48.036Z,100115.00
2018-08-31T03:40:23.496Z,100114.61
2018-08-31T03:41:59.780Z,100108.98
2018-08-31T03:43:35.249Z,100106.88
2018-08-31T03:45:10.764Z,100108.89
2018-08-31T03:46:46.481Z,100114.28
2018-08-31T03:48:21.984Z,100119.20
2018-08-31T03:49:57.482Z,100120.19
2018-08-31T03:51:32.972Z,100124.16
2018-08-31T03:53:08.431Z,100124.26
2018-08-31T03:54:43.917Z,100128.27
2018-08-31T03:56:19.341Z,100117.22
2018-08-31T03:57:55.036Z,100122.84
2018-08-31T03:59:30.564Z,100124.97
2018-08-31T04:01:06.619Z,100119.72
2018-08-31T04:02:42.072Z,100123.08
2018-08-31T04:04:17.510Z,100122.46
2018-08-31T04:05:55.102Z,100121.38
2018-08-31T04:07:31.405Z,100119.95
2018-08-31T04:09:07.996Z,100118.72
2018-08-31T04:10:43.968Z,100118.55
2018-08-31T04:12:20.022Z,100118.86
2018-08-31T04:13:55.441Z,100116.39
2018-08-31T04:15:33.210Z,100113.98
2018-08-31T04:17:08.954Z,100113.12
2018-08-31T04:18:44.973Z,100113.27
2018-08-31T04:20:20.411Z,100118.62
2018-08-31T04:21:56.111Z,100122.78
2018-08-31T04:23:31.675Z,100123.91
2018-08-31T04:25:08.181Z,100122.13
2018-08-31T04:26:44.632Z,100128.89
2018-08-31T04:28:20.112Z,100131.87
2018-08-31T04:29:56.754Z,100139.47
2018-08-31T04:31:32.223Z,100143.67
2018-08-31T04:33:07.749Z,100138.86
2018-08-31T04:34:43.218Z,100137.67
2018-08-31T04:36:18.695Z,100135.97
2018-08-31T04:37:55.078Z,100135.21
2018-08-31T04:39:31.284Z,100132.70
2018-08-31T04:41:06.876Z,100138.02
2018-08-31T04:42:43.374Z,100143.16
2018-08-31T04:44:18.890Z,100149.91
2018-08-31T04:45:54.356Z,100160.13
2018-08-31T04:47:29.910Z,100162.55
2018-08-31T04:49:05.992Z,100159.31
2018-08-31T04:50:41.506Z,100159.89
2018-08-31T04:52:16.974Z,100161.45
2018-08-31T04:53:52.983Z,100160.08
2018-08-31T04:55:28.480Z,100160.59
2018-08-31T04:57:03.979Z,100159.93
2018-08-31T04:58:39.420Z,100152.69
2018-08-31T05:00:14.914Z,100156.30
2018-08-31T05:01:52.387Z,100159.30
2018-08-31T05:03:27.842Z,100154.24
2018-08-31T05:05:04.019Z,100149.89
2018-08-31T05:06:39.488Z,100156.05
2018-08-31T05:08:15.136Z,100157.48
2018-08-31T05:09:50.590Z,100148.95
2018-08-31T05:11:26.133Z,100147.38
2018-08-31T05:13:02.044Z,100143.36
2018-08-31T05:14:37.482Z,100149.77
2018-08-31T05:16:13.789Z,100143.86
2018-08-31T05:17:49.309Z,100144.87
2018-08-31T05:19:25.822Z,100143.55
2018-08-31T05:21:03.666Z,100145.97
2018-08-31T05:22:39.906Z,100145.83
2018-08-31T05:24:16.530Z,100150.95
2018-08-31T05:25:51.993Z,100145.02
2018-08-31T05:27:27.531Z,100150.69
2018-08-31T05:29:03.570Z,100152.27
2018-08-31T05:30:39.117Z,100152.52
2018-08-31T05:32:14.918Z,100151.16
2018-08-31T05:33:50.694Z,100147.12
2018-08-31T05:35:26.890Z,100143.41
2018-08-31T05:37:03.201Z,100133.51
2018-08-31T05:38:38.668Z,100136.07
2018-08-31T05:40:14.133Z,100130.72
2018-08-31T05:41:49.539Z,100130.62
2018-08-31T05:43:25.482Z,100131.48
2018-08-31T05:45:01.311Z,100135.90
2018-08-31T05:46:36.804Z,100134.83
2018-08-31T05:48:12.814Z,100134.94
2018-08-31T05:49:49.372Z,100138.28
2018-08-31T05:51:25.301Z,100079.69
2018-08-31T05:53:00.789Z,100136.95
2018-08-31T05:54:38.921Z,100133.38
2018-08-31T05:56:14.387Z,100141.08
2018-08-31T05:57:49.841Z,100142.55
2018-08-31T05:59:25.462Z,100141.48
2018-08-31T06:01:00.911Z,100143.14
2018-08-31T06:02:37.232Z,100145.05
2018-08-31T06:04:13.613Z,100144.58
2018-08-31T06:05:52.720Z,100146.16
2018-08-31T06:07:29.257Z,100150.91
2018-08-31T06:09:06.492Z,100154.66
2018-08-31T06:10:41.968Z,100159.89
2018-08-31T06:12:17.401Z,100164.55
2018-08-31T06:13:52.825Z,100169.45
2018-08-31T06:15:28.314Z,100173.98
2018-08-31T06:17:04.608Z,100174.27
2018-08-31T06:18:40.045Z,100178.90
2018-08-31T06:20:16.525Z,100178.06
2018-08-31T06:21:52.503Z,100173.56
2018-08-31T06:23:29.060Z,100174.41
2018-08-31T06:25:05.962Z,100171.19
2018-08-31T06:26:41.394Z,100167.59
2018-08-31T06:28:16.871Z,100173.40
2018-08-31T06:29:53.373Z,100176.27
2018-08-31T06:31:29.244Z,100172.56
2018-08-31T06:33:04.752Z,100169.88
2018-08-31T06:34:40.183Z,100166.94
2018-08-31T06:36:16.506Z,100166.22
2018-08-31T06:37:55.004Z,100168.84
2018-08-31T06:39:31.543Z,100164.84
2018-08-31T06:41:10.339Z,100166.73
2018-08-31T06:42:45.799Z,100163.41
2018-08-31T06:44:21.446Z,100156.84
2018-08-31T06:45:57.608Z,100154.69
2018-08-31T06:47:33.770Z,100152.61
2018-08-31T06:49:09.297Z,100156.90
2018-08-31T06:50:45.275Z,100162.68
2018-08-31T06:52:22.098Z,100167.16
2018-08-31T06:53:58.121Z,100172.73
2018-08-31T06:55:35.042Z,100173.24
2018-08-31T06:57:11.932Z,100171.33
2018-08-31T06:58:47.454Z,100173.48
2018-08-31T07:00:22.911Z,100177.25
2018-08-31T07:01:58.347Z,100174.55
2018-08-31T07:03:36.307Z,100172.31
2018-08-31T07:05:12.152Z,100184.86
2018-08-31T07:06:48.401Z,100179.09
2018-08-31T07:08:23.823Z,100182.61
2018-08-31T07:09:59.574Z,100180.85
2018-08-31T07:11:35.013Z,100181.75
2018-08-31T07:13:10.443Z,100182.59
2018-08-31T07:14:48.604Z,100178.23
2018-08-31T07:16:24.057Z,100183.03
2018-08-31T07:17:59.495Z,100181.50
2018-08-31T07:19:35.548Z,100182.34
2018-08-31T07:21:10.994Z,100180.58
2018-08-31T07:22:46.421Z,100180.66
2018-08-31T07:24:21.843Z,100178.56
2018-08-31T07:25:58.127Z,100182.50
2018-08-31T07:27:34.168Z,100176.95
2018-08-31T07:29:09.686Z,100176.09
2018-08-31T07:30:45.647Z,100177.11
2018-08-31T07:32:22.336Z,100186.10
2018-08-31T07:33:58.180Z,100183.75
2018-08-31T07:35:34.183Z,100184.56
2018-08-31T07:37:10.148Z,100179.60
2018-08-31T07:38:48.167Z,100179.83
2018-08-31T07:40:25.076Z,100180.73
2018-08-31T07:42:01.013Z,100175.13
2018-08-31T07:43:37.364Z,100164.94
2018-08-31T07:45:13.456Z,100164.48
2018-08-31T07:46:48.890Z,100161.41
2018-08-31T07:48:25.319Z,100159.82
2018-08-31T07:50:00.874Z,100167.67
2018-08-31T07:51:36.406Z,100159.59
2018-08-31T07:53:11.922Z,100162.47
2018-08-31T07:54:47.363Z,100165.25
2018-08-31T07:56:22.942Z,100167.06
2018-08-31T07:58:00.145Z,100169.15
2018-08-31T07:59:36.506Z,100170.70
2018-08-31T08:01:12.014Z,100171.86
2018-08-31T08:02:47.479Z,100166.78
2018-08-31T08:04:23.037Z,100163.71
2018-08-31T08:05:58.569Z,100169.60
2018-08-31T08:07:34.223Z,100166.98
2018-08-31T08:09:10.122Z,100170.23
2018-08-31T08:10:46.213Z,100167.98
2018-08-31T08:12:21.633Z,100167.27
2018-08-31T08:13:57.387Z,100162.80
2018-08-31T08:15:34.829Z,100163.59
2018-08-31T08:17:10.778Z,100163.27
2018-08-31T08:18:46.430Z,100162.43
2018-08-31T08:20:22.216Z,100173.32
2018-08-31T08:21:59.586Z,100170.73
2018-08-31T08:23:35.059Z,100168.80
2018-08-31T08:25:10.907Z,100170.93
2018-08-31T08:26:46.403Z,100167.91
2018-08-31T08:28:22.969Z,100168.52
2018-08-31T08:29:58.361Z,100173.03
2018-08-31T08:31:33.867Z,100169.31
2018-08-31T08:33:09.387Z,100164.34
2018-08-31T08:34:46.380Z,100166.49
2018-08-31T08:36:22.156Z,100165.58
2018-08-31T08:37:57.559Z,100165.23
2018-08-31T08:39:33.983Z,100170.69
2018-08-31T08:41:09.450Z,100166.91
2018-08-31T08:42:47.205Z,100169.13
2018-08-31T08:44:24.019Z,100167.79
2018-08-31T08:46:01.466Z,100168.81
2018-08-31T08:47:37.571Z,100166.80
2018-08-31T08:49:13.021Z,100171.00
2018-08-31T08:50:49.272Z,100171.66
2018-08-31T08:52:25.993Z,100171.39
2018-08-31T08:54:01.400Z,100166.86
2018-08-31T08:55:36.877Z,100165.25
2018-08-31T08:57:14.987Z,100178.55
2018-08-31T08:58:50.400Z,100166.27
2018-08-31T09:00:28.809Z,100164.27
2018-08-31T09:02:04.996Z,100164.80
2018-08-31T09:03:44.007Z,100169.28
2018-08-31T09:05:19.877Z,100174.91
2018-08-31T09:06:55.289Z,100171.40
2018-08-31T09:08:31.421Z,100171.69
2018-08-31T09:10:08.020Z,100172.82
2018-08-31T09:11:43.595Z,100175.31
2018-08-31T09:13:19.727Z,100184.16
2018-08-31T09:14:55.149Z,100179.05
2018-08-31T09:16:31.106Z,100179.13
2018-08-31T09:18:06.563Z,100176.05
2018-08-31T09:19:41.993Z,100170.03
2018-08-31T09:21:17.422Z,100168.55
2018-08-31T09:22:53.118Z,100170.59
2018-08-31T09:24:31.869Z,100163.78
2018-08-31T09:26:11.704Z,100173.91
2018-08-31T09:27:52.918Z,100168.53
2018-08-31T09:29:28.591Z,100178.43
2018-08-31T09:31:09.782Z,100178.83
2018-08-31T09:32:45.384Z,100181.83
2018-08-31T09:34:21.108Z,100190.41
2018-08-31T09:35:56.920Z,100189.11
2018-08-31T09:37:32.433Z,100185.99
2018-08-31T09:39:08.728Z,100181.34
2018-08-31T09:40:44.225Z,100179.06
2018-08-31T09:42:20.070Z,100177.34
2018-08-31T09:43:58.116Z,100174.05
2018-08-31T09:45:33.823Z,100173.38
2018-08-31T09:47:11.302Z,100175.27
2018-08-31T09:48:47.161Z,100180.48
2018-08-31T09:50:22.610Z,100183.11
2018-08-31T09:51:59.558Z,100186.97
2018-08-31T09:53:36.515Z,100180.64
2018-08-31T09:55:13.832Z,100178.65
2018-08-31T09:56:51.384Z,100186.13
2018-08-31T09:58:27.764Z,100181.50
2018-08-31T10:00:03.232Z,100149.69
2018-08-31T10:01:39.548Z,100172.06
2018-08-31T10:03:20.505Z,100172.63
2018-08-31T10:04:57.907Z,100169.14
2018-08-31T10:06:35.544Z,100164.72
2018-08-31T10:08:11.778Z,100160.63
2018-08-31T10:09:47.259Z,100156.39
2018-08-31T10:11:22.710Z,100150.11
2018-08-31T10:12:59.084Z,100153.28
2018-08-31T10:14:35.385Z,100159.66
2018-08-31T10:16:11.082Z,100156.75
2018-08-31T10:17:46.530Z,100155.40
2018-08-31T10:19:22.234Z,100154.00
2018-08-31T10:20:58.723Z,100162.34
2018-08-31T10:22:34.229Z,100162.69
2018-08-31T10:24:11.785Z,100159.66
2018-08-31T10:25:48.008Z,100163.72
2018-08-31T10:27:23.473Z,100162.50
2018-08-31T10:28:59.436Z,100160.10
2018-08-31T10:30:37.187Z,100160.77
2018-08-31T10:32:12.596Z,100164.58
2018-08-31T10:33:48.055Z,100161.86
2018-08-31T10:35:23.790Z,100159.37
2018-08-31T10:37:00.300Z,100153.97
2018-08-31T10:38:36.930Z,100146.97
2018-08-31T10:40:12.684Z,100143.91
2018-08-31T10:41:49.691Z,100136.65
2018-08-31T10:43:26.110Z,100135.36
2018-08-31T10:45:02.587Z,100141.75
2018-08-31T10:46:40.108Z,100141.33
2018-08-31T10:48:17.131Z,100159.23
2018-08-31T10:49:53.667Z,100149.30
2018-08-31T10:51:30.341Z,100149.59
2018-08-31T10:53:08.791Z,100148.68
2018-08-31T10:54:44.812Z,100148.92
2018-08-31T10:56:22.098Z,100142.64
2018-08-31T10:57:58.531Z,100138.14
2018-08-31T10:59:36.672Z,100133.13
2018-08-31T11:01:12.202Z,100133.52
2018-08-31T11:02:48.651Z,100136.73
2018-08-31T11:04:27.435Z,100124.02
2018-08-31T11:06:03.581Z,100128.53
2018-08-31T11:07:39.476Z,100121.41
2018-08-31T11:09:16.029Z,100115.57
2018-08-31T11:10:51.454Z,100111.44
2018-08-31T11:12:27.193Z,100104.48
2018-08-31T11:14:03.577Z,100105.87
2018-08-31T11:15:40.342Z,100110.66
2018-08-31T11:17:15.790Z,100113.91
2018-08-31T11:18:51.311Z,100116.67
2018-08-31T11:20:26.760Z,100121.27
2018-08-31T11:22:02.603Z,100119.80
2018-08-31T11:23:38.387Z,100115.29
2018-08-31T11:25:14.323Z,100120.88
2018-08-31T11:26:49.759Z,100106.05
2018-08-31T11:28:26.612Z,100110.75
2018-08-31T11:30:02.047Z,100114.83
2018-08-31T11:31:38.422Z,100116.32
2018-08-31T11:33:14.942Z,100116.83
2018-08-31T11:34:50.681Z,100117.78
2018-08-31T11:36:27.523Z,100112.84
2018-08-31T11:38:02.943Z,100114.22
2018-08-31T11:39:39.475Z,100110.11
2018-08-31T11:41:16.546Z,100112.88
2018-08-31T11:42:52.865Z,100114.75
2018-08-31T11:44:28.314Z,100110.16
2018-08-31T11:46:04.385Z,100115.91
2018-08-31T11:47:40.348Z,100118.08
2018-08-31T11:49:17.816Z,100109.97
2018-08-31T11:50:54.299Z,100104.72
2018-08-31T11:52:31.050Z,100098.16
2018-08-31T11:54:08.240Z,100099.10
2018-08-31T11:55:44.020Z,100098.86
2018-08-31T11:57:19.552Z,100089.41
2018-08-31T11:58:55.070Z,100080.62
2018-08-31T12:00:31.480Z,100087.34
2018-08-31T12:02:07.408Z,100086.19
2018-08-31T12:03:42.824Z,100083.71
2018-08-31T12:05:19.258Z,100084.95
2018-08-31T12:06:55.659Z,100086.14
2018-08-31T12:08:32.627Z,100089.69
2018-08-31T12:10:09.411Z,100090.12
2018-08-31T12:11:44.915Z,100095.16
2018-08-31T12:13:20.377Z,100089.88
2018-08-31T12:14:55.825Z,100101.34
2018-08-31T12:16:32.888Z,100097.91
2018-08-31T12:18:14.583Z,100099.94
2018-08-31T12:19:56.723Z,100091.06
2018-08-31T12:21:33.888Z,100093.08
2018-08-31T12:23:14.703Z,100091.50
2018-08-31T12:24:50.149Z,100099.05
2018-08-31T12:26:27.878Z,100094.74
2018-08-31T12:28:06.677Z,100092.33
2018-08-31T12:29:42.375Z,100093.83
2018-08-31T12:31:17.932Z,100092.77
2018-08-31T12:32:53.414Z,100096.86
2018-08-31T12:34:28.925Z,100094.68
2018-08-31T12:36:05.033Z,100094.21
2018-08-31T12:37:40.545Z,100086.74
2018-08-31T12:39:16.997Z,100082.38
2018-08-31T12:40:56.436Z,100078.98
2018-08-31T12:42:33.192Z,100072.42
2018-08-31T12:44:08.730Z,100079.53
2018-08-31T12:45:44.465Z,100075.20
2018-08-31T12:47:20.623Z,100069.20
2018-08-31T12:48:56.617Z,100068.35
2018-08-31T12:50:32.335Z,100063.86
2018-08-31T12:52:07.774Z,100069.75
2018-08-31T12:53:43.344Z,100075.52
2018-08-31T12:55:18.788Z,100078.06
2018-08-31T12:56:54.850Z,100080.20
2018-08-31T12:58:30.630Z,100069.64
2018-08-31T13:00:06.775Z,100073.95
2018-08-31T13:01:43.097Z,100068.72
2018-08-31T13:03:18.677Z,100065.97
2018-08-31T13:04:54.125Z,100068.97
2018-08-31T13:06:29.580Z,100075.91
2018-08-31T13:08:05.479Z,100068.89
2018-08-31T13:09:47.611Z,100068.60
2018-08-31T13:11:23.165Z,100063.20
2018-08-31T13:12:59.146Z,100058.00
2018-08-31T13:14:34.792Z,100061.59
2018-08-31T13:16:10.705Z,100054.27
2018-08-31T13:17:47.463Z,100059.70
2018-08-31T13:19:23.579Z,100061.28
2018-08-31T13:20:59.145Z,100063.58
2018-08-31T13:22:34.639Z,100063.75
2018-08-31T13:24:10.087Z,100064.17
2018-08-31T13:25:54.491Z,100062.83
2018-08-31T13:27:30.867Z,100063.76
2018-08-31T13:29:06.330Z,100060.05
2018-08-31T13:30:42.610Z,100067.76
2018-08-31T13:32:18.108Z,100069.88
2018-08-31T13:33:53.652Z,100070.95
2018-08-31T13:35:29.090Z,100071.09
2018-08-31T13:37:04.553Z,100071.80
2018-08-31T13:38:42.249Z,100065.28
2018-08-31T13:40:17.687Z,100065.39
2018-08-31T13:41:53.529Z,100072.09
2018-08-31T13:43:28.973Z,100066.30
2018-08-31T13:45:04.522Z,100065.56
2018-08-31T13:46:40.180Z,100057.69
2018-08-31T13:48:18.954Z,100063.38
2018-08-31T13:49:55.039Z,100061.89
2018-08-31T13:51:30.610Z,100054.89
2018-08-31T13:53:06.028Z,100058.50
2018-08-31T13:54:42.892Z,100064.70
2018-08-31T13:56:18.464Z,100068.92
2018-08-31T13:57:53.904Z,100063.61
2018-08-31T13:59:29.506Z,100062.64
2018-08-31T14:01:04.923Z,100057.68
2018-08-31T14:02:40.454Z,100062.96
2018-08-31T14:04:16.277Z,100068.25
2018-08-31T14:05:52.124Z,100066.79
2018-08-31T14:07:27.557Z,100063.80
2018-08-31T14:09:05.387Z,100065.39
2018-08-31T14:10:41.126Z,100066.16
2018-08-31T14:12:16.740Z,100067.16
2018-08-31T14:13:52.274Z,100068.52
2018-08-31T14:15:27.784Z,100069.69
2018-08-31T14:17:03.279Z,100073.92
2018-08-31T14:18:38.759Z,100077.64
2018-08-31T14:20:14.243Z,100072.19
2018-08-31T14:21:49.718Z,100072.48
2018-08-31T14:23:25.191Z,100068.55
2018-08-31T14:25:00.655Z,100067.42
2018-08-31T14:26:36.382Z,100073.63
2018-08-31T14:28:12.987Z,100068.34
2018-08-31T14:29:50.812Z,100073.44
2018-08-31T14:31:27.433Z,100071.29
2018-08-31T14:33:06.926Z,100073.44
2018-08-31T14:34:42.686Z,100082.66
2018-08-31T14:36:18.347Z,100079.53
2018-08-31T14:37:54.540Z,100082.55
2018-08-31T14:39:29.952Z,100078.34
2018-08-31T14:41:05.474Z,100085.68
2018-08-31T14:42:41.001Z,100085.16
2018-08-31T14:44:16.549Z,100077.70
2018-08-31T14:45:54.358Z,100081.53
2018-08-31T14:47:29.868Z,100082.37
2018-08-31T14:49:06.003Z,100079.56
2018-08-31T14:50:41.490Z,100086.08
2018-08-31T14:52:16.965Z,100083.18
2018-08-31T14:53:53.514Z,100083.21
2018-08-31T14:55:28.945Z,100080.03
2018-08-31T14:57:04.846Z,100076.05
2018-08-31T14:58:41.556Z,100076.95
2018-08-31T15:00:17.208Z,100078.42
2018-08-31T15:01:52.901Z,100073.59
2018-08-31T15:03:28.362Z,100072.14
2018-08-31T15:05:03.782Z,100073.27
2018-08-31T15:06:39.689Z,100065.39
2018-08-31T15:08:15.862Z,100075.10
2018-08-31T15:09:52.143Z,100065.70
2018-08-31T15:11:27.628Z,100063.64
2018-08-31T15:13:03.639Z,100065.61
2018-08-31T15:14:39.464Z,100065.83
2018-08-31T15:16:15.206Z,100064.55
2018-08-31T15:17:51.658Z,100062.43
2018-08-31T15:19:27.766Z,100062.93
2018-08-31T15:21:08.738Z,100067.32
2018-08-31T15:22:44.153Z,100067.42
2018-08-31T15:24:19.613Z,100063.55
2018-08-31T15:25:55.656Z,100070.56
2018-08-31T15:27:31.121Z,100066.91
2018-08-31T15:29:06.954Z,100066.12
2018-08-31T15:30:42.935Z,100061.75
2018-08-31T15:32:19.262Z,100066.14
2018-08-31T15:33:54.804Z,100066.03
2018-08-31T15:35:30.235Z,100064.37
2018-08-31T15:37:05.792Z,100064.33
2018-08-31T15:38:41.786Z,100059.49
2018-08-31T15:40:17.213Z,100060.66
2018-08-31T15:41:54.122Z,100060.11
2018-08-31T15:43:29.585Z,100064.97
2018-08-31T15:45:06.984Z,100059.44
2018-08-31T15:46:42.533Z,100056.97
2018-08-31T15:48:18.665Z,100053.30
2018-08-31T15:49:54.475Z,100047.30
2018-08-31T15:51:32.093Z,100053.52
2018-08-31T15:53:07.512Z,100047.70
2018-08-31T15:54:43.098Z,100045.38
2018-08-31T15:56:19.185Z,99925.95
2018-08-31T15:57:56.258Z,100043.59
2018-08-31T15:59:31.950Z,100046.11
2018-08-31T16:01:09.081Z,100042.02
2018-08-31T16:02:45.285Z,100045.47
2018-08-31T16:04:20.851Z,100045.78
2018-08-31T16:05:57.021Z,100044.05
2018-08-31T16:07:33.516Z,100041.11
2018-08-31T16:09:10.045Z,100047.98
2018-08-31T16:10:46.270Z,100048.05
2018-08-31T16:12:22.198Z,100050.78
2018-08-31T16:13:57.968Z,100055.95
2018-08-31T16:15:33.506Z,100054.81
2018-08-31T16:17:09.200Z,100051.09
2018-08-31T16:18:44.607Z,100052.11
2018-08-31T16:20:21.355Z,100049.94
2018-08-31T16:21:57.108Z,100049.09
2018-08-31T16:23:32.762Z,100052.41
2018-08-31T16:25:08.316Z,100052.44
2018-08-31T16:26:49.129Z,100053.78
2018-08-31T16:28:25.267Z,100052.80
2018-08-31T16:30:01.492Z,100051.27
2018-08-31T16:31:37.751Z,100052.27
2018-08-31T16:33:15.623Z,100057.59
2018-08-31T16:34:51.177Z,100061.30
2018-08-31T16:36:26.610Z,100052.60
2018-08-31T16:38:02.374Z,100052.10
2018-08-31T16:39:38.961Z,100055.45
2018-08-31T16:41:14.461Z,100057.61
2018-08-31T16:42:50.159Z,100053.80
2018-08-31T16:44:25.939Z,100055.94
2018-08-31T16:46:01.504Z,100064.80
2018-08-31T16:47:37.953Z,100058.80
2018-08-31T16:49:15.025Z,100065.13
2018-08-31T16:50:50.527Z,100054.95
2018-08-31T16:52:26.414Z,100058.15
2018-08-31T16:54:03.060Z,100060.63
2018-08-31T16:55:38.635Z,100055.10
2018-08-31T16:57:15.233Z,100058.82
2018-08-31T16:58:51.491Z,100063.80
2018-08-31T17:00:27.808Z,100068.48
2018-08-31T17:02:09.434Z,100072.48
2018-08-31T17:03:44.962Z,100071.13
2018-08-31T17:05:20.378Z,100070.42
2018-08-31T17:06:58.020Z,100073.06
2018-08-31T17:08:34.016Z,100071.08
2018-08-31T17:10:09.824Z,100073.14
2018-08-31T17:11:46.025Z,100067.95
2018-08-31T17:13:22.061Z,100073.98
2018-08-31T17:14:57.721Z,100071.13
2018-08-31T17:16:33.164Z,100070.44
2018-08-31T17:18:09.672Z,100071.28
2018-08-31T17:19:45.557Z,100070.44
2018-08-31T17:21:21.524Z,100079.28
2018-08-31T17:22:57.364Z,100072.72
2018-08-31T17:24:32.899Z,100072.05
2018-08-31T17:26:12.847Z,100081.08
2018-08-31T17:27:55.063Z,100080.09
2018-08-31T17:29:34.954Z,100088.78
2018-08-31T17:31:16.486Z,100087.29
2018-08-31T17:32:57.637Z,100090.99
2018-08-31T17:34:40.256Z,100085.39
2018-08-31T17:36:21.369Z,100093.96
2018-08-31T17:37:59.692Z,100093.97
2018-08-31T17:39:35.380Z,100086.69
2018-08-31T17:41:11.403Z,100082.55
2018-08-31T17:42:46.928Z,100086.38
2018-08-31T17:44:23.018Z,100086.05
2018-08-31T17:45:58.516Z,100085.34
2018-08-31T17:47:34.228Z,100099.43
2018-08-31T17:49:11.567Z,100096.28
2018-08-31T17:50:47.159Z,100096.76
2018-08-31T17:52:22.647Z,100095.73
2018-08-31T17:53:58.384Z,100095.91
2018-08-31T17:55:34.788Z,100098.02
2018-08-31T17:57:10.467Z,100101.23
2018-08-31T17:58:45.936Z,100109.00
2018-08-31T18:00:22.872Z,100118.14
2018-08-31T18:01:59.603Z,100111.20
2018-08-31T18:03:35.934Z,100121.52
2018-08-31T18:05:13.551Z,100115.50
2018-08-31T18:06:49.600Z,100116.18
2018-08-31T18:08:25.119Z,100123.14
2018-08-31T18:10:00.788Z,100131.44
2018-08-31T18:11:36.479Z,100134.68
2018-08-31T18:13:11.969Z,99997.38
2018-08-31T18:14:47.486Z,100129.52
2018-08-31T18:16:25.080Z,100131.86
2018-08-31T18:18:02.470Z,100131.44
2018-08-31T18:19:37.933Z,100128.97
2018-08-31T18:21:16.774Z,100129.23
2018-08-31T18:22:58.138Z,100134.20
2018-08-31T18:24:33.612Z,100136.08
2018-08-31T18:27:50.812Z,100143.30
2018-08-31T18:29:26.290Z,100145.66
2018-08-31T18:31:01.848Z,100151.38